sensor_id;sensor_type;location;lat;lon;timestamp;temperature;humidity
25939;DHT22;13739;51.172;4.466;2022-12-29T00:01:00;11.10;99.90
25939;DHT22;13739;51.172;4.466;2022-12-29T00:03:26;11.00;99.90
25939;DHT22;13739;51.172;4.466;2022-12-29T00:05:56;11.00;99.90
25939;DHT22;13739;51.172;4.466;2022-12-29T00:08:22;11.30;99.90
25939;DHT22;13739;51.172;4.466;2022-12-29T00:13:37;11.10;99.90
25939;DHT22;13739;51.172;4.466;2022-12-29T00:16:22;11.20;99.90
25939;DHT22;13739;51.172;4.466;2022-12-29T00:42:08;11.50;99.90
25939;DHT22;13739;51.172;4.466;2022-12-29T00:44:52;11.50;99.90
25939;DHT22;13739;51.172;4.466;2022-12-29T00:47:18;11.60;99.90
25939;DHT22;13739;51.172;4.466;2022-12-29T00:49:43;11.60;99.90
25939;DHT22;13739;51.172;4.466;2022-12-29T00:52:12;11.60;99.90
25939;DHT22;13739;51.172;4.466;2022-12-29T00:54:40;11.60;99.90
25939;DHT22;13739;51.172;4.466;2022-12-29T00:57:07;11.40;99.90
25939;DHT22;13739;51.172;4.466;2022-12-29T00:59:38;11.60;99.90
25939;DHT22;13739;51.172;4.466;2022-12-29T01:02:04;11.70;99.90
25939;DHT22;13739;51.172;4.466;2022-12-29T01:04:30;11.70;99.90
25939;DHT22;13739;51.172;4.466;2022-12-29T01:06:56;11.70;99.90
25939;DHT22;13739;51.172;4.466;2022-12-29T01:09:21;11.70;99.90
25939;DHT22;13739;51.172;4.466;2022-12-29T01:12:07;11.70;99.90
25939;DHT22;13739;51.172;4.466;2022-12-29T01:14:33;11.70;99.90
25939;DHT22;13739;51.172;4.466;2022-12-29T01:16:58;11.70;99.90
25939;DHT22;13739;51.172;4.466;2022-12-29T01:19:25;11.70;99.90
25939;DHT22;13739;51.172;4.466;2022-12-29T01:21:51;11.70;99.90
25939;DHT22;13739;51.172;4.466;2022-12-29T01:24:17;11.70;99.90
25939;DHT22;13739;51.172;4.466;2022-12-29T01:26:44;11.60;99.90
25939;DHT22;13739;51.172;4.466;2022-12-29T01:29:10;11.70;99.90
25939;DHT22;13739;51.172;4.466;2022-12-29T01:31:36;11.70;99.90
25939;DHT22;13739;51.172;4.466;2022-12-29T01:34:02;11.70;99.90
25939;DHT22;13739;51.172;4.466;2022-12-29T01:36:27;11.70;99.90
25939;DHT22;13739;51.172;4.466;2022-12-29T01:38:53;11.70;99.90
25939;DHT22;13739;51.172;4.466;2022-12-29T01:41:19;11.80;99.90
25939;DHT22;13739;51.172;4.466;2022-12-29T01:43:47;11.80;99.90
25939;DHT22;13739;51.172;4.466;2022-12-29T01:46:33;11.80;99.90
25939;DHT22;13739;51.172;4.466;2022-12-29T01:51:45;11.80;99.90
25939;DHT22;13739;51.172;4.466;2022-12-29T01:54:17;11.80;99.90
25939;DHT22;13739;51.172;4.466;2022-12-29T01:56:44;11.70;99.90
25939;DHT22;13739;51.172;4.466;2022-12-29T01:59:15;11.70;99.90
25939;DHT22;13739;51.172;4.466;2022-12-29T02:01:42;11.60;99.90
25939;DHT22;13739;51.172;4.466;2022-12-29T02:04:09;11.50;99.90
25939;DHT22;13739;51.172;4.466;2022-12-29T02:06:41;11.50;99.90
25939;DHT22;13739;51.172;4.466;2022-12-29T02:09:08;11.50;99.90
25939;DHT22;13739;51.172;4.466;2022-12-29T02:11:35;11.40;99.90
25939;DHT22;13739;51.172;4.466;2022-12-29T02:14:04;11.40;99.90
25939;DHT22;13739;51.172;4.466;2022-12-29T02:17:13;11.40;99.90
25939;DHT22;13739;51.172;4.466;2022-12-29T02:31:21;11.40;99.90
25939;DHT22;13739;51.172;4.466;2022-12-29T02:39:34;11.30;99.90
25939;DHT22;13739;51.172;4.466;2022-12-29T02:47:21;11.40;99.90
25939;DHT22;13739;51.172;4.466;2022-12-29T02:52:45;11.40;99.90
25939;DHT22;13739;51.172;4.466;2022-12-29T02:55:12;11.40;99.90
25939;DHT22;13739;51.172;4.466;2022-12-29T02:57:37;11.50;99.90
25939;DHT22;13739;51.172;4.466;2022-12-29T03:00:07;11.50;99.90
25939;DHT22;13739;51.172;4.466;2022-12-29T03:05:38;11.40;99.90
25939;DHT22;13739;51.172;4.466;2022-12-29T03:08:20;11.30;99.90
25939;DHT22;13739;51.172;4.466;2022-12-29T03:11:03;11.30;99.90
25939;DHT22;13739;51.172;4.466;2022-12-29T03:13:49;11.30;99.90
25939;DHT22;13739;51.172;4.466;2022-12-29T03:16:59;11.20;99.90
25939;DHT22;13739;51.172;4.466;2022-12-29T03:19:35;11.30;99.90
25939;DHT22;13739;51.172;4.466;2022-12-29T03:22:05;11.20;99.90
25939;DHT22;13739;51.172;4.466;2022-12-29T03:25:39;11.20;99.90
25939;DHT22;13739;51.172;4.466;2022-12-29T03:27:42;11.20;99.90
25939;DHT22;13739;51.172;4.466;2022-12-29T03:30:10;11.20;99.90
25939;DHT22;13739;51.172;4.466;2022-12-29T03:32:47;11.30;99.90
25939;DHT22;13739;51.172;4.466;2022-12-29T03:35:16;11.20;99.90
25939;DHT22;13739;51.172;4.466;2022-12-29T03:38:08;11.20;99.90
25939;DHT22;13739;51.172;4.466;2022-12-29T03:40:38;11.10;99.90
25939;DHT22;13739;51.172;4.466;2022-12-29T03:43:05;11.10;99.90
25939;DHT22;13739;51.172;4.466;2022-12-29T03:45:31;11.20;99.90
25939;DHT22;13739;51.172;4.466;2022-12-29T03:47:57;11.10;99.90
25939;DHT22;13739;51.172;4.466;2022-12-29T03:50:22;11.00;99.90
25939;DHT22;13739;51.172;4.466;2022-12-29T03:52:48;11.00;99.90
25939;DHT22;13739;51.172;4.466;2022-12-29T03:55:14;11.10;99.90
25939;DHT22;13739;51.172;4.466;2022-12-29T03:57:39;11.10;99.90
25939;DHT22;13739;51.172;4.466;2022-12-29T04:00:06;11.10;99.90
25939;DHT22;13739;51.172;4.466;2022-12-29T04:02:32;11.00;99.90
25939;DHT22;13739;51.172;4.466;2022-12-29T04:04:57;11.10;99.90
25939;DHT22;13739;51.172;4.466;2022-12-29T04:07:23;11.00;99.90
25939;DHT22;13739;51.172;4.466;2022-12-29T04:09:49;11.00;99.90
25939;DHT22;13739;51.172;4.466;2022-12-29T04:12:14;11.00;99.90
25939;DHT22;13739;51.172;4.466;2022-12-29T05:09:03;10.80;99.90
25939;DHT22;13739;51.172;4.466;2022-12-29T07:28:31;10.70;99.90
25939;DHT22;13739;51.172;4.466;2022-12-29T08:38:16;10.90;99.90
25939;DHT22;13739;51.172;4.466;2022-12-29T08:40:46;10.80;99.90
25939;DHT22;13739;51.172;4.466;2022-12-29T08:43:14;10.90;99.90
25939;DHT22;13739;51.172;4.466;2022-12-29T08:56:34;10.50;99.90
25939;DHT22;13739;51.172;4.466;2022-12-29T08:59:06;10.50;99.90
25939;DHT22;13739;51.172;4.466;2022-12-29T09:01:33;10.50;99.90
25939;DHT22;13739;51.172;4.466;2022-12-29T09:04:24;10.50;99.90
25939;DHT22;13739;51.172;4.466;2022-12-29T09:09:20;10.40;99.90
25939;DHT22;13739;51.172;4.466;2022-12-29T09:11:50;10.30;99.90
25939;DHT22;13739;51.172;4.466;2022-12-29T09:14:17;10.30;99.90
25939;DHT22;13739;51.172;4.466;2022-12-29T09:16:43;10.40;99.90
25939;DHT22;13739;51.172;4.466;2022-12-29T09:19:27;10.30;99.90
25939;DHT22;13739;51.172;4.466;2022-12-29T09:21:53;10.40;99.90
25939;DHT22;13739;51.172;4.466;2022-12-29T09:24:19;10.40;99.90
25939;DHT22;13739;51.172;4.466;2022-12-29T09:26:46;10.30;99.90
25939;DHT22;13739;51.172;4.466;2022-12-29T09:29:12;10.10;99.90
25939;DHT22;13739;51.172;4.466;2022-12-29T09:31:37;10.30;99.90
25939;DHT22;13739;51.172;4.466;2022-12-29T09:34:04;10.20;99.90
25939;DHT22;13739;51.172;4.466;2022-12-29T09:36:30;10.30;99.90
25939;DHT22;13739;51.172;4.466;2022-12-29T09:38:56;10.20;99.90
25939;DHT22;13739;51.172;4.466;2022-12-29T09:52:28;10.40;99.90
25939;DHT22;13739;51.172;4.466;2022-12-29T09:55:05;10.40;99.90
25939;DHT22;13739;51.172;4.466;2022-12-29T10:00:22;10.30;99.90
25939;DHT22;13739;51.172;4.466;2022-12-29T10:02:53;10.20;99.90
25939;DHT22;13739;51.172;4.466;2022-12-29T10:05:33;10.20;99.90
25939;DHT22;13739;51.172;4.466;2022-12-29T10:14:04;10.10;99.90
25939;DHT22;13739;51.172;4.466;2022-12-29T10:16:46;10.10;99.90
25939;DHT22;13739;51.172;4.466;2022-12-29T10:24:56;10.20;99.90
25939;DHT22;13739;51.172;4.466;2022-12-29T10:27:22;10.10;99.90
25939;DHT22;13739;51.172;4.466;2022-12-29T10:29:56;10.00;99.90
25939;DHT22;13739;51.172;4.466;2022-12-29T10:32:56;10.00;99.90
25939;DHT22;13739;51.172;4.466;2022-12-29T10:41:02;10.10;99.90
25939;DHT22;13739;51.172;4.466;2022-12-29T10:43:37;10.20;99.90
25939;DHT22;13739;51.172;4.466;2022-12-29T10:48:39;10.20;99.90
25939;DHT22;13739;51.172;4.466;2022-12-29T10:51:07;10.30;99.90
25939;DHT22;13739;51.172;4.466;2022-12-29T10:53:46;10.20;99.90
25939;DHT22;13739;51.172;4.466;2022-12-29T10:56:36;10.40;99.90
25939;DHT22;13739;51.172;4.466;2022-12-29T10:59:23;10.50;99.90
25939;DHT22;13739;51.172;4.466;2022-12-29T11:05:15;10.60;99.90
25939;DHT22;13739;51.172;4.466;2022-12-29T11:07:53;10.70;99.90
25939;DHT22;13739;51.172;4.466;2022-12-29T11:10:38;10.80;99.90
25939;DHT22;13739;51.172;4.466;2022-12-29T11:13:25;10.50;99.90
25939;DHT22;13739;51.172;4.466;2022-12-29T11:18:39;10.70;99.90
25939;DHT22;13739;51.172;4.466;2022-12-29T11:21:31;10.60;99.90
25939;DHT22;13739;51.172;4.466;2022-12-29T11:24:02;10.80;99.90
25939;DHT22;13739;51.172;4.466;2022-12-29T11:26:32;10.80;99.90
25939;DHT22;13739;51.172;4.466;2022-12-29T11:37:30;10.90;99.90
25939;DHT22;13739;51.172;4.466;2022-12-29T11:40:17;10.80;99.90
25939;DHT22;13739;51.172;4.466;2022-12-29T11:43:10;11.00;99.90
25939;DHT22;13739;51.172;4.466;2022-12-29T11:45:46;11.00;99.90
25939;DHT22;13739;51.172;4.466;2022-12-29T11:48:18;10.90;99.90
25939;DHT22;13739;51.172;4.466;2022-12-29T11:50:55;11.10;99.90
25939;DHT22;13739;51.172;4.466;2022-12-29T11:53:43;11.00;99.90
25939;DHT22;13739;51.172;4.466;2022-12-29T11:56:22;11.10;99.90
25939;DHT22;13739;51.172;4.466;2022-12-29T11:58:57;11.20;99.90
25939;DHT22;13739;51.172;4.466;2022-12-29T12:01:34;11.20;99.90
25939;DHT22;13739;51.172;4.466;2022-12-29T12:04:15;11.10;99.90
25939;DHT22;13739;51.172;4.466;2022-12-29T12:09:27;11.20;99.90
25939;DHT22;13739;51.172;4.466;2022-12-29T12:11:54;11.20;99.90
25939;DHT22;13739;51.172;4.466;2022-12-29T12:14:37;11.20;99.90
25939;DHT22;13739;51.172;4.466;2022-12-29T12:17:18;11.10;99.90
25939;DHT22;13739;51.172;4.466;2022-12-29T12:19:58;11.00;99.90
25939;DHT22;13739;51.172;4.466;2022-12-29T12:22:46;11.10;99.90
25939;DHT22;13739;51.172;4.466;2022-12-29T12:25:29;11.00;99.90
25939;DHT22;13739;51.172;4.466;2022-12-29T12:28:05;10.90;99.90
25939;DHT22;13739;51.172;4.466;2022-12-29T12:30:47;10.60;99.90
25939;DHT22;13739;51.172;4.466;2022-12-29T12:39:07;10.20;99.90
25939;DHT22;13739;51.172;4.466;2022-12-29T12:47:44;10.20;99.90
25939;DHT22;13739;51.172;4.466;2022-12-29T13:10:41;10.10;99.90
25939;DHT22;13739;51.172;4.466;2022-12-29T13:15:49;10.10;99.90
25939;DHT22;13739;51.172;4.466;2022-12-29T13:18:26;10.40;99.90
25939;DHT22;13739;51.172;4.466;2022-12-29T13:20:59;10.50;99.90
25939;DHT22;13739;51.172;4.466;2022-12-29T13:29:31;10.50;99.90
25939;DHT22;13739;51.172;4.466;2022-12-29T13:35:46;10.30;99.90
25939;DHT22;13739;51.172;4.466;2022-12-29T13:38:33;10.50;99.90
25939;DHT22;13739;51.172;4.466;2022-12-29T13:41:29;10.10;99.90
25939;DHT22;13739;51.172;4.466;2022-12-29T13:44:02;10.30;99.90
25939;DHT22;13739;51.172;4.466;2022-12-29T13:46:39;10.30;99.90
25939;DHT22;13739;51.172;4.466;2022-12-29T13:49:16;10.40;99.90
25939;DHT22;13739;51.172;4.466;2022-12-29T13:51:54;10.30;99.90
25939;DHT22;13739;51.172;4.466;2022-12-29T13:57:44;10.20;99.90
25939;DHT22;13739;51.172;4.466;2022-12-29T14:00:21;10.20;99.90
25939;DHT22;13739;51.172;4.466;2022-12-29T14:03:01;10.10;99.90
25939;DHT22;13739;51.172;4.466;2022-12-29T14:05:33;10.00;99.90
25939;DHT22;13739;51.172;4.466;2022-12-29T14:08:04;10.10;99.90
25939;DHT22;13739;51.172;4.466;2022-12-29T14:10:35;10.10;99.90
25939;DHT22;13739;51.172;4.466;2022-12-29T14:13:18;10.00;99.90
25939;DHT22;13739;51.172;4.466;2022-12-29T14:18:33;9.90;99.90
25939;DHT22;13739;51.172;4.466;2022-12-29T14:21:03;9.80;99.90
25939;DHT22;13739;51.172;4.466;2022-12-29T14:32:09;9.70;99.90
25939;DHT22;13739;51.172;4.466;2022-12-29T14:35:00;9.50;99.90
25939;DHT22;13739;51.172;4.466;2022-12-29T14:40:18;9.60;99.90
25939;DHT22;13739;51.172;4.466;2022-12-29T14:42:47;9.40;99.90
25939;DHT22;13739;51.172;4.466;2022-12-29T14:53:00;9.40;99.90
25939;DHT22;13739;51.172;4.466;2022-12-29T15:08:31;9.20;99.90
25939;DHT22;13739;51.172;4.466;2022-12-29T15:11:05;9.30;99.90
25939;DHT22;13739;51.172;4.466;2022-12-29T15:13:38;9.00;99.90
25939;DHT22;13739;51.172;4.466;2022-12-29T15:16:22;9.30;99.90
25939;DHT22;13739;51.172;4.466;2022-12-29T15:18:49;9.20;99.90
25939;DHT22;13739;51.172;4.466;2022-12-29T15:21:16;9.40;99.90
25939;DHT22;13739;51.172;4.466;2022-12-29T15:23:45;9.40;99.90
25939;DHT22;13739;51.172;4.466;2022-12-29T15:26:11;9.30;99.90
25939;DHT22;13739;51.172;4.466;2022-12-29T15:28:43;9.20;99.90
25939;DHT22;13739;51.172;4.466;2022-12-29T15:31:24;9.10;99.90
25939;DHT22;13739;51.172;4.466;2022-12-29T15:34:00;9.20;99.90
25939;DHT22;13739;51.172;4.466;2022-12-29T15:36:36;9.20;99.90
25939;DHT22;13739;51.172;4.466;2022-12-29T15:46:54;9.30;99.90
25939;DHT22;13739;51.172;4.466;2022-12-29T15:52:09;9.40;99.90
25939;DHT22;13739;51.172;4.466;2022-12-29T15:57:30;9.30;99.90
25939;DHT22;13739;51.172;4.466;2022-12-29T16:00:20;9.40;99.90
25939;DHT22;13739;51.172;4.466;2022-12-29T16:02:48;9.40;99.90
25939;DHT22;13739;51.172;4.466;2022-12-29T16:05:18;9.10;99.90
25939;DHT22;13739;51.172;4.466;2022-12-29T16:07:56;9.20;99.90
25939;DHT22;13739;51.172;4.466;2022-12-29T16:13:22;9.40;99.90
25939;DHT22;13739;51.172;4.466;2022-12-29T16:18:28;9.30;99.90
25939;DHT22;13739;51.172;4.466;2022-12-29T16:20:56;9.30;99.90
25939;DHT22;13739;51.172;4.466;2022-12-29T16:23:25;9.10;99.90
25939;DHT22;13739;51.172;4.466;2022-12-29T16:25:53;9.30;99.90
25939;DHT22;13739;51.172;4.466;2022-12-29T16:28:27;9.20;99.90
25939;DHT22;13739;51.172;4.466;2022-12-29T16:31:36;9.30;99.90
25939;DHT22;13739;51.172;4.466;2022-12-29T16:34:33;9.10;99.90
25939;DHT22;13739;51.172;4.466;2022-12-29T16:37:31;9.00;99.90
25939;DHT22;13739;51.172;4.466;2022-12-29T16:40:25;9.00;99.90
25939;DHT22;13739;51.172;4.466;2022-12-29T16:43:34;8.80;99.90
25939;DHT22;13739;51.172;4.466;2022-12-29T16:46:29;9.00;99.90
25939;DHT22;13739;51.172;4.466;2022-12-29T16:49:04;9.00;99.90
25939;DHT22;13739;51.172;4.466;2022-12-29T16:51:30;8.90;99.90
25939;DHT22;13739;51.172;4.466;2022-12-29T16:53:58;8.80;99.90
25939;DHT22;13739;51.172;4.466;2022-12-29T16:56:27;8.90;99.90
25939;DHT22;13739;51.172;4.466;2022-12-29T17:01:25;8.70;99.90
25939;DHT22;13739;51.172;4.466;2022-12-29T17:03:54;8.70;99.90
25939;DHT22;13739;51.172;4.466;2022-12-29T17:06:22;8.70;99.90
25939;DHT22;13739;51.172;4.466;2022-12-29T17:08:49;8.70;99.90
25939;DHT22;13739;51.172;4.466;2022-12-29T17:11:24;8.70;99.90
25939;DHT22;13739;51.172;4.466;2022-12-29T17:17:02;8.80;99.90
25939;DHT22;13739;51.172;4.466;2022-12-29T17:19:31;8.70;99.90
25939;DHT22;13739;51.172;4.466;2022-12-29T17:21:58;8.70;99.90
25939;DHT22;13739;51.172;4.466;2022-12-29T17:24:23;8.60;99.90
25939;DHT22;13739;51.172;4.466;2022-12-29T17:26:52;8.60;99.90
25939;DHT22;13739;51.172;4.466;2022-12-29T17:29:38;8.70;99.90
25939;DHT22;13739;51.172;4.466;2022-12-29T17:32:09;8.70;99.90
25939;DHT22;13739;51.172;4.466;2022-12-29T17:34:37;8.70;99.90
25939;DHT22;13739;51.172;4.466;2022-12-29T17:37:02;8.70;99.90
25939;DHT22;13739;51.172;4.466;2022-12-29T17:39:28;8.60;99.90
25939;DHT22;13739;51.172;4.466;2022-12-29T17:41:54;8.60;99.90
25939;DHT22;13739;51.172;4.466;2022-12-29T17:44:20;8.70;99.90
25939;DHT22;13739;51.172;4.466;2022-12-29T17:46:47;8.70;99.90
25939;DHT22;13739;51.172;4.466;2022-12-29T17:49:16;8.70;99.90
25939;DHT22;13739;51.172;4.466;2022-12-29T17:51:44;8.70;99.90
25939;DHT22;13739;51.172;4.466;2022-12-29T17:54:22;8.70;99.90
25939;DHT22;13739;51.172;4.466;2022-12-29T17:56:49;8.60;99.90
25939;DHT22;13739;51.172;4.466;2022-12-29T17:59:15;8.60;99.90
25939;DHT22;13739;51.172;4.466;2022-12-29T18:01:42;8.60;99.90
25939;DHT22;13739;51.172;4.466;2022-12-29T18:04:15;8.60;99.90
25939;DHT22;13739;51.172;4.466;2022-12-29T18:06:41;8.60;99.90
25939;DHT22;13739;51.172;4.466;2022-12-29T18:09:07;8.60;99.90
25939;DHT22;13739;51.172;4.466;2022-12-29T18:11:37;8.50;99.90
25939;DHT22;13739;51.172;4.466;2022-12-29T18:14:03;8.50;99.90
25939;DHT22;13739;51.172;4.466;2022-12-29T18:16:29;8.50;99.90
25939;DHT22;13739;51.172;4.466;2022-12-29T18:18:55;8.50;99.90
25939;DHT22;13739;51.172;4.466;2022-12-29T18:21:22;8.50;99.90
25939;DHT22;13739;51.172;4.466;2022-12-29T18:23:48;8.60;99.90
25939;DHT22;13739;51.172;4.466;2022-12-29T18:31:43;8.70;99.90
25939;DHT22;13739;51.172;4.466;2022-12-29T18:34:15;8.60;99.90
25939;DHT22;13739;51.172;4.466;2022-12-29T18:39:18;8.70;99.90
25939;DHT22;13739;51.172;4.466;2022-12-29T18:41:50;8.70;99.90
25939;DHT22;13739;51.172;4.466;2022-12-29T18:44:33;8.80;99.90
25939;DHT22;13739;51.172;4.466;2022-12-29T18:47:05;8.80;99.90
25939;DHT22;13739;51.172;4.466;2022-12-29T18:49:37;8.70;99.90
25939;DHT22;13739;51.172;4.466;2022-12-29T18:52:24;8.80;99.90
25939;DHT22;13739;51.172;4.466;2022-12-29T18:54:50;8.80;99.90
25939;DHT22;13739;51.172;4.466;2022-12-29T18:57:16;9.00;99.90
25939;DHT22;13739;51.172;4.466;2022-12-29T18:59:46;8.70;99.90
25939;DHT22;13739;51.172;4.466;2022-12-29T19:02:19;8.80;99.90
25939;DHT22;13739;51.172;4.466;2022-12-29T19:04:45;8.70;99.90
25939;DHT22;13739;51.172;4.466;2022-12-29T19:07:16;8.70;99.90
25939;DHT22;13739;51.172;4.466;2022-12-29T19:09:42;8.70;99.90
25939;DHT22;13739;51.172;4.466;2022-12-29T19:12:14;8.60;99.90
25939;DHT22;13739;51.172;4.466;2022-12-29T19:17:17;8.60;99.90
25939;DHT22;13739;51.172;4.466;2022-12-29T19:19:45;8.60;99.90
25939;DHT22;13739;51.172;4.466;2022-12-29T19:22:11;8.80;99.90
25939;DHT22;13739;51.172;4.466;2022-12-29T19:27:12;8.60;99.90
25939;DHT22;13739;51.172;4.466;2022-12-29T19:29:38;8.50;99.90
25939;DHT22;13739;51.172;4.466;2022-12-29T19:32:05;8.50;99.90
25939;DHT22;13739;51.172;4.466;2022-12-29T19:58:15;8.40;99.90
25939;DHT22;13739;51.172;4.466;2022-12-29T20:05:54;8.30;99.90
25939;DHT22;13739;51.172;4.466;2022-12-29T20:08:21;8.30;99.90
25939;DHT22;13739;51.172;4.466;2022-12-29T20:11:04;8.10;99.90
25939;DHT22;13739;51.172;4.466;2022-12-29T20:16:13;8.20;99.90
25939;DHT22;13739;51.172;4.466;2022-12-29T20:18:43;7.90;99.90
25939;DHT22;13739;51.172;4.466;2022-12-29T20:24:22;8.20;99.90
25939;DHT22;13739;51.172;4.466;2022-12-29T20:26:51;8.20;99.90
25939;DHT22;13739;51.172;4.466;2022-12-29T20:29:41;8.20;99.90
25939;DHT22;13739;51.172;4.466;2022-12-29T20:45:05;8.20;99.90
25939;DHT22;13739;51.172;4.466;2022-12-29T20:50:08;8.20;99.90
25939;DHT22;13739;51.172;4.466;2022-12-29T20:57:44;8.10;99.90
25939;DHT22;13739;51.172;4.466;2022-12-29T21:00:11;8.20;99.90
25939;DHT22;13739;51.172;4.466;2022-12-29T21:02:37;8.20;99.90
25939;DHT22;13739;51.172;4.466;2022-12-29T21:05:03;8.10;99.90
25939;DHT22;13739;51.172;4.466;2022-12-29T21:07:29;8.10;99.90
25939;DHT22;13739;51.172;4.466;2022-12-29T21:09:54;8.10;99.90
25939;DHT22;13739;51.172;4.466;2022-12-29T21:12:20;8.20;99.90
25939;DHT22;13739;51.172;4.466;2022-12-29T21:14:46;8.10;99.90
25939;DHT22;13739;51.172;4.466;2022-12-29T21:17:12;8.10;99.90
25939;DHT22;13739;51.172;4.466;2022-12-29T21:19:38;8.10;99.90
25939;DHT22;13739;51.172;4.466;2022-12-29T21:22:07;8.10;99.90
25939;DHT22;13739;51.172;4.466;2022-12-29T21:24:32;8.20;99.90
25939;DHT22;13739;51.172;4.466;2022-12-29T21:26:58;8.10;99.90
25939;DHT22;13739;51.172;4.466;2022-12-29T21:29:24;8.10;99.90
25939;DHT22;13739;51.172;4.466;2022-12-29T21:31:51;8.10;99.90
25939;DHT22;13739;51.172;4.466;2022-12-29T21:34:16;8.10;99.90
25939;DHT22;13739;51.172;4.466;2022-12-29T21:36:42;8.10;99.90
25939;DHT22;13739;51.172;4.466;2022-12-29T21:39:08;8.10;99.90
25939;DHT22;13739;51.172;4.466;2022-12-29T21:41:34;8.10;99.90
25939;DHT22;13739;51.172;4.466;2022-12-29T21:43:59;8.10;99.90
25939;DHT22;13739;51.172;4.466;2022-12-29T21:46:44;8.10;99.90
25939;DHT22;13739;51.172;4.466;2022-12-29T21:49:12;8.00;99.90
25939;DHT22;13739;51.172;4.466;2022-12-29T21:51:38;8.00;99.90
25939;DHT22;13739;51.172;4.466;2022-12-29T21:54:24;8.00;99.90
25939;DHT22;13739;51.172;4.466;2022-12-29T21:57:19;8.10;99.90
25939;DHT22;13739;51.172;4.466;2022-12-29T22:00:15;7.90;99.90
25939;DHT22;13739;51.172;4.466;2022-12-29T23:13:16;7.60;99.90
25939;DHT22;13739;51.172;4.466;2022-12-29T23:34:22;7.70;99.90
25939;DHT22;13739;51.172;4.466;2022-12-29T23:36:49;7.60;99.90
25939;DHT22;13739;51.172;4.466;2022-12-29T23:39:24;7.60;99.90
25939;DHT22;13739;51.172;4.466;2022-12-29T23:41:51;7.50;99.90
25939;DHT22;13739;51.172;4.466;2022-12-29T23:44:18;7.60;99.90
25939;DHT22;13739;51.172;4.466;2022-12-29T23:46:49;7.60;99.90
25939;DHT22;13739;51.172;4.466;2022-12-29T23:49:27;7.40;99.90
25939;DHT22;13739;51.172;4.466;2022-12-29T23:52:07;7.60;99.90
25939;DHT22;13739;51.172;4.466;2022-12-29T23:54:59;7.70;99.90
25939;DHT22;13739;51.172;4.466;2022-12-29T23:57:30;7.60;99.90
